sensor_id;sensor_type;location;lat;lon;timestamp;temperature;humidity
45849;DHT22;31567;54.600;9.842;2023-06-22T00:02:43;17.40;94.70
45849;DHT22;31567;54.600;9.842;2023-06-22T00:06:23;17.40;94.80
45849;DHT22;31567;54.600;9.842;2023-06-22T00:10:03;17.30;94.90
45849;DHT22;31567;54.600;9.842;2023-06-22T00:13:42;17.30;94.90
45849;DHT22;31567;54.600;9.842;2023-06-22T00:17:22;17.20;94.80
45849;DHT22;31567;54.600;9.842;2023-06-22T00:21:01;17.20;95.00
45849;DHT22;31567;54.600;9.842;2023-06-22T00:24:41;17.10;95.00
45849;DHT22;31567;54.600;9.842;2023-06-22T00:28:21;17.10;95.20
45849;DHT22;31567;54.600;9.842;2023-06-22T00:32:00;17.00;95.00
45849;DHT22;31567;54.600;9.842;2023-06-22T00:35:40;17.00;95.20
45849;DHT22;31567;54.600;9.842;2023-06-22T00:39:20;16.90;95.50
45849;DHT22;31567;54.600;9.842;2023-06-22T00:43:00;17.00;95.70
45849;DHT22;31567;54.600;9.842;2023-06-22T00:46:39;17.00;95.50
45849;DHT22;31567;54.600;9.842;2023-06-22T00:50:24;16.80;95.50
45849;DHT22;31567;54.600;9.842;2023-06-22T00:54:05;16.70;95.80
45849;DHT22;31567;54.600;9.842;2023-06-22T00:57:46;16.70;95.90
45849;DHT22;31567;54.600;9.842;2023-06-22T01:01:25;16.60;96.20
45849;DHT22;31567;54.600;9.842;2023-06-22T01:05:05;16.60;96.30
45849;DHT22;31567;54.600;9.842;2023-06-22T01:08:57;16.50;96.30
45849;DHT22;31567;54.600;9.842;2023-06-22T01:12:44;16.40;96.50
45849;DHT22;31567;54.600;9.842;2023-06-22T01:16:33;16.30;96.80
45849;DHT22;31567;54.600;9.842;2023-06-22T01:20:14;16.20;96.90
45849;DHT22;31567;54.600;9.842;2023-06-22T01:24:18;16.20;97.00
45849;DHT22;31567;54.600;9.842;2023-06-22T01:28:36;16.10;96.80
45849;DHT22;31567;54.600;9.842;2023-06-22T01:32:17;16.00;96.70
45849;DHT22;31567;54.600;9.842;2023-06-22T01:35:57;15.90;96.70
45849;DHT22;31567;54.600;9.842;2023-06-22T01:39:37;15.80;96.70
45849;DHT22;31567;54.600;9.842;2023-06-22T01:43:18;15.80;96.70
45849;DHT22;31567;54.600;9.842;2023-06-22T01:46:59;15.70;96.80
45849;DHT22;31567;54.600;9.842;2023-06-22T01:50:38;15.70;96.70
45849;DHT22;31567;54.600;9.842;2023-06-22T01:54:18;15.70;96.80
45849;DHT22;31567;54.600;9.842;2023-06-22T01:57:57;15.70;97.00
45849;DHT22;31567;54.600;9.842;2023-06-22T02:01:49;15.70;97.00
45849;DHT22;31567;54.600;9.842;2023-06-22T02:05:36;15.70;97.40
45849;DHT22;31567;54.600;9.842;2023-06-22T02:09:17;15.80;97.80
45849;DHT22;31567;54.600;9.842;2023-06-22T02:12:59;15.80;97.70
45849;DHT22;31567;54.600;9.842;2023-06-22T02:16:40;15.70;97.70
45849;DHT22;31567;54.600;9.842;2023-06-22T02:20:20;15.70;97.80
45849;DHT22;31567;54.600;9.842;2023-06-22T02:23:59;15.60;98.00
45849;DHT22;31567;54.600;9.842;2023-06-22T02:27:39;15.50;97.70
45849;DHT22;31567;54.600;9.842;2023-06-22T02:31:19;15.40;97.80
45849;DHT22;31567;54.600;9.842;2023-06-22T02:34:59;15.50;98.40
45849;DHT22;31567;54.600;9.842;2023-06-22T02:38:42;15.50;98.30
45849;DHT22;31567;54.600;9.842;2023-06-22T02:42:27;15.50;98.20
45849;DHT22;31567;54.600;9.842;2023-06-22T02:46:07;15.30;98.00
45849;DHT22;31567;54.600;9.842;2023-06-22T02:49:46;15.30;98.30
45849;DHT22;31567;54.600;9.842;2023-06-22T02:53:26;15.40;98.60
45849;DHT22;31567;54.600;9.842;2023-06-22T02:57:05;15.40;98.70
45849;DHT22;31567;54.600;9.842;2023-06-22T03:00:45;15.40;98.50
45849;DHT22;31567;54.600;9.842;2023-06-22T03:04:24;15.30;98.40
45849;DHT22;31567;54.600;9.842;2023-06-22T03:08:04;15.30;98.60
45849;DHT22;31567;54.600;9.842;2023-06-22T03:11:43;15.20;98.70
45849;DHT22;31567;54.600;9.842;2023-06-22T03:15:23;15.20;98.60
45849;DHT22;31567;54.600;9.842;2023-06-22T03:19:02;15.00;98.50
45849;DHT22;31567;54.600;9.842;2023-06-22T03:22:42;15.00;98.60
45849;DHT22;31567;54.600;9.842;2023-06-22T03:26:23;15.00;98.70
45849;DHT22;31567;54.600;9.842;2023-06-22T03:30:08;15.00;98.70
45849;DHT22;31567;54.600;9.842;2023-06-22T03:33:49;15.00;98.60
45849;DHT22;31567;54.600;9.842;2023-06-22T03:37:29;14.90;98.60
45849;DHT22;31567;54.600;9.842;2023-06-22T03:41:08;15.00;98.70
45849;DHT22;31567;54.600;9.842;2023-06-22T03:44:48;14.90;98.80
45849;DHT22;31567;54.600;9.842;2023-06-22T03:48:27;15.00;99.20
45849;DHT22;31567;54.600;9.842;2023-06-22T03:52:07;15.20;99.70
45849;DHT22;31567;54.600;9.842;2023-06-22T03:55:53;15.50;99.90
45849;DHT22;31567;54.600;9.842;2023-06-22T03:59:32;15.60;99.90
45849;DHT22;31567;54.600;9.842;2023-06-22T04:03:12;15.70;99.90
45849;DHT22;31567;54.600;9.842;2023-06-22T04:06:52;15.70;99.90
45849;DHT22;31567;54.600;9.842;2023-06-22T04:10:32;15.90;99.90
45849;DHT22;31567;54.600;9.842;2023-06-22T04:14:11;15.90;99.90
45849;DHT22;31567;54.600;9.842;2023-06-22T04:17:51;16.00;99.90
45849;DHT22;31567;54.600;9.842;2023-06-22T04:21:31;16.10;99.90
45849;DHT22;31567;54.600;9.842;2023-06-22T04:25:10;16.30;99.90
45849;DHT22;31567;54.600;9.842;2023-06-22T04:28:50;16.30;99.90
45849;DHT22;31567;54.600;9.842;2023-06-22T04:32:35;16.50;99.90
45849;DHT22;31567;54.600;9.842;2023-06-22T04:36:18;16.60;99.90
45849;DHT22;31567;54.600;9.842;2023-06-22T04:39:58;16.80;99.90
45849;DHT22;31567;54.600;9.842;2023-06-22T04:43:37;16.90;99.90
45849;DHT22;31567;54.600;9.842;2023-06-22T04:47:17;17.00;99.90
45849;DHT22;31567;54.600;9.842;2023-06-22T04:50:56;17.10;99.90
45849;DHT22;31567;54.600;9.842;2023-06-22T04:54:42;17.20;99.90
45849;DHT22;31567;54.600;9.842;2023-06-22T04:58:27;17.20;99.90
45849;DHT22;31567;54.600;9.842;2023-06-22T05:02:08;17.20;99.90
45849;DHT22;31567;54.600;9.842;2023-06-22T05:05:47;17.30;99.90
45849;DHT22;31567;54.600;9.842;2023-06-22T05:09:28;17.40;99.90
45849;DHT22;31567;54.600;9.842;2023-06-22T05:13:08;17.60;99.90
45849;DHT22;31567;54.600;9.842;2023-06-22T05:16:48;17.70;99.90
45849;DHT22;31567;54.600;9.842;2023-06-22T05:20:28;17.80;99.90
45849;DHT22;31567;54.600;9.842;2023-06-22T05:24:08;18.00;99.90
45849;DHT22;31567;54.600;9.842;2023-06-22T05:27:47;18.10;99.90
45849;DHT22;31567;54.600;9.842;2023-06-22T05:31:27;18.20;99.90
45849;DHT22;31567;54.600;9.842;2023-06-22T05:35:07;18.30;99.90
45849;DHT22;31567;54.600;9.842;2023-06-22T05:38:47;18.40;99.90
45849;DHT22;31567;54.600;9.842;2023-06-22T05:42:28;18.40;99.90
45849;DHT22;31567;54.600;9.842;2023-06-22T05:46:07;18.50;99.90
45849;DHT22;31567;54.600;9.842;2023-06-22T05:49:47;18.70;99.90
45849;DHT22;31567;54.600;9.842;2023-06-22T05:53:26;18.90;99.90
45849;DHT22;31567;54.600;9.842;2023-06-22T05:57:06;19.00;99.90
45849;DHT22;31567;54.600;9.842;2023-06-22T06:00:46;19.30;99.90
45849;DHT22;31567;54.600;9.842;2023-06-22T06:04:25;19.40;99.90
45849;DHT22;31567;54.600;9.842;2023-06-22T06:08:06;19.60;99.80
45849;DHT22;31567;54.600;9.842;2023-06-22T06:11:45;19.80;99.50
45849;DHT22;31567;54.600;9.842;2023-06-22T06:15:25;19.90;99.20
45849;DHT22;31567;54.600;9.842;2023-06-22T06:19:04;20.00;99.00
45849;DHT22;31567;54.600;9.842;2023-06-22T06:22:44;20.20;98.60
45849;DHT22;31567;54.600;9.842;2023-06-22T06:26:24;20.30;98.20
45849;DHT22;31567;54.600;9.842;2023-06-22T06:30:07;20.50;97.90
45849;DHT22;31567;54.600;9.842;2023-06-22T06:33:47;20.70;97.60
45849;DHT22;31567;54.600;9.842;2023-06-22T06:37:27;20.80;97.10
45849;DHT22;31567;54.600;9.842;2023-06-22T06:41:07;20.90;96.80
45849;DHT22;31567;54.600;9.842;2023-06-22T06:44:46;21.00;96.00
45849;DHT22;31567;54.600;9.842;2023-06-22T06:48:26;21.10;95.50
45849;DHT22;31567;54.600;9.842;2023-06-22T06:52:06;21.30;95.20
45849;DHT22;31567;54.600;9.842;2023-06-22T06:55:45;21.40;94.80
45849;DHT22;31567;54.600;9.842;2023-06-22T06:59:25;21.60;94.00
45849;DHT22;31567;54.600;9.842;2023-06-22T07:03:05;21.70;93.40
45849;DHT22;31567;54.600;9.842;2023-06-22T07:06:46;21.80;93.00
45849;DHT22;31567;54.600;9.842;2023-06-22T07:10:25;21.80;92.70
45849;DHT22;31567;54.600;9.842;2023-06-22T07:14:05;21.90;92.10
45849;DHT22;31567;54.600;9.842;2023-06-22T07:17:45;22.00;91.70
45849;DHT22;31567;54.600;9.842;2023-06-22T07:21:24;22.10;91.60
45849;DHT22;31567;54.600;9.842;2023-06-22T07:25:04;22.20;91.30
45849;DHT22;31567;54.600;9.842;2023-06-22T07:28:48;22.20;91.20
45849;DHT22;31567;54.600;9.842;2023-06-22T07:32:27;22.40;90.90
45849;DHT22;31567;54.600;9.842;2023-06-22T07:36:08;22.50;90.50
45849;DHT22;31567;54.600;9.842;2023-06-22T07:39:47;22.70;90.20
45849;DHT22;31567;54.600;9.842;2023-06-22T07:43:28;22.80;89.80
45849;DHT22;31567;54.600;9.842;2023-06-22T07:47:09;22.90;89.20
45849;DHT22;31567;54.600;9.842;2023-06-22T07:50:49;23.10;88.90
45849;DHT22;31567;54.600;9.842;2023-06-22T07:54:28;23.10;88.60
45849;DHT22;31567;54.600;9.842;2023-06-22T07:58:08;23.20;88.80
45849;DHT22;31567;54.600;9.842;2023-06-22T08:01:47;23.40;88.10
45849;DHT22;31567;54.600;9.842;2023-06-22T08:05:28;23.50;87.10
45849;DHT22;31567;54.600;9.842;2023-06-22T08:09:09;23.70;86.90
45849;DHT22;31567;54.600;9.842;2023-06-22T08:12:48;23.80;85.60
45849;DHT22;31567;54.600;9.842;2023-06-22T08:16:28;23.90;85.80
45849;DHT22;31567;54.600;9.842;2023-06-22T08:20:08;24.10;85.90
45849;DHT22;31567;54.600;9.842;2023-06-22T08:23:54;24.30;85.60
45849;DHT22;31567;54.600;9.842;2023-06-22T08:27:33;24.50;85.40
45849;DHT22;31567;54.600;9.842;2023-06-22T08:31:13;24.70;85.60
45849;DHT22;31567;54.600;9.842;2023-06-22T08:34:57;24.90;84.60
45849;DHT22;31567;54.600;9.842;2023-06-22T08:38:36;25.00;83.90
45849;DHT22;31567;54.600;9.842;2023-06-22T08:42:16;25.20;84.80
45849;DHT22;31567;54.600;9.842;2023-06-22T08:45:55;25.40;85.10
45849;DHT22;31567;54.600;9.842;2023-06-22T08:49:35;25.50;83.00
45849;DHT22;31567;54.600;9.842;2023-06-22T08:53:15;25.70;82.30
45849;DHT22;31567;54.600;9.842;2023-06-22T08:56:54;25.90;82.20
45849;DHT22;31567;54.600;9.842;2023-06-22T09:00:34;26.00;82.30
45849;DHT22;31567;54.600;9.842;2023-06-22T09:04:14;26.20;81.00
45849;DHT22;31567;54.600;9.842;2023-06-22T09:07:55;26.30;80.90
45849;DHT22;31567;54.600;9.842;2023-06-22T09:11:35;26.40;79.80
45849;DHT22;31567;54.600;9.842;2023-06-22T09:15:15;26.40;82.00
45849;DHT22;31567;54.600;9.842;2023-06-22T09:18:54;26.60;81.10
45849;DHT22;31567;54.600;9.842;2023-06-22T09:22:34;26.70;78.90
45849;DHT22;31567;54.600;9.842;2023-06-22T09:26:14;26.90;78.40
45849;DHT22;31567;54.600;9.842;2023-06-22T09:29:53;27.00;78.00
45849;DHT22;31567;54.600;9.842;2023-06-22T09:33:33;27.00;78.50
45849;DHT22;31567;54.600;9.842;2023-06-22T09:37:12;27.00;76.60
45849;DHT22;31567;54.600;9.842;2023-06-22T09:40:52;27.10;76.90
45849;DHT22;31567;54.600;9.842;2023-06-22T09:44:31;27.20;74.70
45849;DHT22;31567;54.600;9.842;2023-06-22T09:48:11;27.50;74.10
45849;DHT22;31567;54.600;9.842;2023-06-22T09:51:51;27.70;73.90
45849;DHT22;31567;54.600;9.842;2023-06-22T09:55:31;27.80;74.10
45849;DHT22;31567;54.600;9.842;2023-06-22T09:59:11;27.90;72.50
45849;DHT22;31567;54.600;9.842;2023-06-22T10:02:50;27.90;72.00
45849;DHT22;31567;54.600;9.842;2023-06-22T10:06:30;28.00;71.40
45849;DHT22;31567;54.600;9.842;2023-06-22T10:10:11;28.20;72.00
45849;DHT22;31567;54.600;9.842;2023-06-22T10:13:50;28.40;71.40
45849;DHT22;31567;54.600;9.842;2023-06-22T10:17:30;28.60;69.70
45849;DHT22;31567;54.600;9.842;2023-06-22T10:21:09;28.70;70.20
45849;DHT22;31567;54.600;9.842;2023-06-22T10:24:49;28.90;70.10
45849;DHT22;31567;54.600;9.842;2023-06-22T10:28:28;29.00;67.60
45849;DHT22;31567;54.600;9.842;2023-06-22T10:32:08;29.20;65.80
45849;DHT22;31567;54.600;9.842;2023-06-22T10:35:48;29.30;64.60
45849;DHT22;31567;54.600;9.842;2023-06-22T10:39:27;29.50;64.00
45849;DHT22;31567;54.600;9.842;2023-06-22T10:43:07;29.60;64.80
45849;DHT22;31567;54.600;9.842;2023-06-22T10:46:46;29.70;61.00
45849;DHT22;31567;54.600;9.842;2023-06-22T10:50:26;29.70;62.00
45849;DHT22;31567;54.600;9.842;2023-06-22T10:54:05;29.80;63.50
45849;DHT22;31567;54.600;9.842;2023-06-22T10:57:45;29.90;62.30
45849;DHT22;31567;54.600;9.842;2023-06-22T11:01:26;30.00;62.70
45849;DHT22;31567;54.600;9.842;2023-06-22T11:05:06;30.20;61.80
45849;DHT22;31567;54.600;9.842;2023-06-22T11:08:46;30.30;63.40
45849;DHT22;31567;54.600;9.842;2023-06-22T11:12:25;30.40;61.50
45849;DHT22;31567;54.600;9.842;2023-06-22T11:16:05;30.60;60.20
45849;DHT22;31567;54.600;9.842;2023-06-22T11:19:45;30.70;60.80
45849;DHT22;31567;54.600;9.842;2023-06-22T11:23:24;30.80;57.50
45849;DHT22;31567;54.600;9.842;2023-06-22T11:27:05;30.80;58.30
45849;DHT22;31567;54.600;9.842;2023-06-22T11:30:45;30.80;64.30
45849;DHT22;31567;54.600;9.842;2023-06-22T11:34:24;30.60;66.30
45849;DHT22;31567;54.600;9.842;2023-06-22T11:38:04;30.40;69.30
45849;DHT22;31567;54.600;9.842;2023-06-22T11:41:44;30.50;69.50
45849;DHT22;31567;54.600;9.842;2023-06-22T11:45:24;30.60;69.30
45849;DHT22;31567;54.600;9.842;2023-06-22T11:49:03;30.80;69.70
45849;DHT22;31567;54.600;9.842;2023-06-22T11:52:43;31.00;68.50
45849;DHT22;31567;54.600;9.842;2023-06-22T11:56:22;31.10;68.80
45849;DHT22;31567;54.600;9.842;2023-06-22T12:00:03;31.30;69.20
45849;DHT22;31567;54.600;9.842;2023-06-22T12:03:54;31.40;68.80
45849;DHT22;31567;54.600;9.842;2023-06-22T12:07:33;31.40;68.40
45849;DHT22;31567;54.600;9.842;2023-06-22T12:11:13;31.40;67.40
45849;DHT22;31567;54.600;9.842;2023-06-22T12:14:52;31.40;67.90
45849;DHT22;31567;54.600;9.842;2023-06-22T12:18:32;31.50;66.70
45849;DHT22;31567;54.600;9.842;2023-06-22T12:22:12;31.60;66.00
45849;DHT22;31567;54.600;9.842;2023-06-22T12:25:51;31.60;66.10
45849;DHT22;31567;54.600;9.842;2023-06-22T12:29:31;31.60;65.90
45849;DHT22;31567;54.600;9.842;2023-06-22T12:33:10;31.60;65.50
45849;DHT22;31567;54.600;9.842;2023-06-22T12:36:50;31.70;65.40
45849;DHT22;31567;54.600;9.842;2023-06-22T12:40:30;31.70;64.20
45849;DHT22;31567;54.600;9.842;2023-06-22T12:44:09;31.70;63.90
45849;DHT22;31567;54.600;9.842;2023-06-22T12:47:49;31.60;65.10
45849;DHT22;31567;54.600;9.842;2023-06-22T12:51:29;31.60;64.20
45849;DHT22;31567;54.600;9.842;2023-06-22T12:55:09;31.60;65.10
45849;DHT22;31567;54.600;9.842;2023-06-22T12:58:49;31.50;64.90
45849;DHT22;31567;54.600;9.842;2023-06-22T13:02:28;31.40;64.50
45849;DHT22;31567;54.600;9.842;2023-06-22T13:06:08;31.40;65.20
45849;DHT22;31567;54.600;9.842;2023-06-22T13:09:47;31.40;65.20
45849;DHT22;31567;54.600;9.842;2023-06-22T13:13:31;31.30;66.30
45849;DHT22;31567;54.600;9.842;2023-06-22T13:17:11;31.30;64.10
45849;DHT22;31567;54.600;9.842;2023-06-22T13:20:51;31.20;64.80
45849;DHT22;31567;54.600;9.842;2023-06-22T13:24:33;31.20;64.20
45849;DHT22;31567;54.600;9.842;2023-06-22T13:28:13;31.20;65.10
45849;DHT22;31567;54.600;9.842;2023-06-22T13:31:55;31.20;64.30
45849;DHT22;31567;54.600;9.842;2023-06-22T13:35:36;31.20;63.30
45849;DHT22;31567;54.600;9.842;2023-06-22T13:39:17;31.30;63.50
45849;DHT22;31567;54.600;9.842;2023-06-22T13:42:56;31.30;63.20
45849;DHT22;31567;54.600;9.842;2023-06-22T13:46:36;31.30;61.60
45849;DHT22;31567;54.600;9.842;2023-06-22T13:50:15;31.30;61.80
45849;DHT22;31567;54.600;9.842;2023-06-22T13:53:55;31.50;61.80
45849;DHT22;31567;54.600;9.842;2023-06-22T13:57:34;31.60;61.40
45849;DHT22;31567;54.600;9.842;2023-06-22T14:01:14;31.70;60.10
45849;DHT22;31567;54.600;9.842;2023-06-22T14:04:54;31.70;61.80
45849;DHT22;31567;54.600;9.842;2023-06-22T14:08:33;31.80;60.10
45849;DHT22;31567;54.600;9.842;2023-06-22T14:12:13;31.90;60.20
45849;DHT22;31567;54.600;9.842;2023-06-22T14:15:52;32.00;61.40
45849;DHT22;31567;54.600;9.842;2023-06-22T14:19:33;32.10;61.30
45849;DHT22;31567;54.600;9.842;2023-06-22T14:23:12;32.20;58.80
45849;DHT22;31567;54.600;9.842;2023-06-22T14:26:52;32.20;59.10
45849;DHT22;31567;54.600;9.842;2023-06-22T14:30:32;32.30;59.60
45849;DHT22;31567;54.600;9.842;2023-06-22T14:34:11;32.40;59.30
45849;DHT22;31567;54.600;9.842;2023-06-22T14:37:51;32.40;60.20
45849;DHT22;31567;54.600;9.842;2023-06-22T14:41:30;32.40;60.70
45849;DHT22;31567;54.600;9.842;2023-06-22T14:45:10;32.20;60.70
45849;DHT22;31567;54.600;9.842;2023-06-22T14:48:50;32.20;60.50
45849;DHT22;31567;54.600;9.842;2023-06-22T14:52:29;32.20;60.40
45849;DHT22;31567;54.600;9.842;2023-06-22T14:56:09;32.20;59.50
45849;DHT22;31567;54.600;9.842;2023-06-22T14:59:51;32.30;60.10
45849;DHT22;31567;54.600;9.842;2023-06-22T15:03:31;32.40;58.80
45849;DHT22;31567;54.600;9.842;2023-06-22T15:07:11;32.40;58.90
45849;DHT22;31567;54.600;9.842;2023-06-22T15:10:51;32.40;58.70
45849;DHT22;31567;54.600;9.842;2023-06-22T15:14:31;32.40;57.70
45849;DHT22;31567;54.600;9.842;2023-06-22T15:18:10;32.40;57.40
45849;DHT22;31567;54.600;9.842;2023-06-22T15:21:50;32.40;57.80
45849;DHT22;31567;54.600;9.842;2023-06-22T15:25:29;32.40;57.70
45849;DHT22;31567;54.600;9.842;2023-06-22T15:29:09;32.40;58.00
45849;DHT22;31567;54.600;9.842;2023-06-22T15:32:49;32.40;58.10
45849;DHT22;31567;54.600;9.842;2023-06-22T15:36:28;32.50;58.10
45849;DHT22;31567;54.600;9.842;2023-06-22T15:40:08;32.50;58.20
45849;DHT22;31567;54.600;9.842;2023-06-22T15:43:48;32.40;58.40
45849;DHT22;31567;54.600;9.842;2023-06-22T15:47:27;32.30;58.40
45849;DHT22;31567;54.600;9.842;2023-06-22T15:51:07;32.40;57.40
45849;DHT22;31567;54.600;9.842;2023-06-22T15:54:46;32.40;57.00
45849;DHT22;31567;54.600;9.842;2023-06-22T15:58:26;32.30;55.30
45849;DHT22;31567;54.600;9.842;2023-06-22T16:02:06;32.10;56.40
45849;DHT22;31567;54.600;9.842;2023-06-22T16:05:46;31.90;56.80
45849;DHT22;31567;54.600;9.842;2023-06-22T16:09:26;31.60;57.30
45849;DHT22;31567;54.600;9.842;2023-06-22T16:13:06;31.40;57.40
45849;DHT22;31567;54.600;9.842;2023-06-22T16:16:46;31.10;57.60
45849;DHT22;31567;54.600;9.842;2023-06-22T16:20:25;30.90;56.50
45849;DHT22;31567;54.600;9.842;2023-06-22T16:24:05;30.70;57.50
45849;DHT22;31567;54.600;9.842;2023-06-22T16:27:45;30.50;57.30
45849;DHT22;31567;54.600;9.842;2023-06-22T16:31:25;30.40;57.60
45849;DHT22;31567;54.600;9.842;2023-06-22T16:35:06;30.20;57.70
45849;DHT22;31567;54.600;9.842;2023-06-22T16:38:46;30.10;56.80
45849;DHT22;31567;54.600;9.842;2023-06-22T16:42:26;29.90;57.10
45849;DHT22;31567;54.600;9.842;2023-06-22T16:46:05;29.80;56.90
45849;DHT22;31567;54.600;9.842;2023-06-22T16:49:45;29.70;57.00
45849;DHT22;31567;54.600;9.842;2023-06-22T16:53:25;29.50;58.00
45849;DHT22;31567;54.600;9.842;2023-06-22T16:57:05;29.50;59.10
45849;DHT22;31567;54.600;9.842;2023-06-22T17:00:47;29.30;60.20
45849;DHT22;31567;54.600;9.842;2023-06-22T17:04:29;29.20;62.40
45849;DHT22;31567;54.600;9.842;2023-06-22T17:08:12;29.00;64.70
45849;DHT22;31567;54.600;9.842;2023-06-22T17:11:53;28.80;66.60
45849;DHT22;31567;54.600;9.842;2023-06-22T17:15:34;28.40;68.00
45849;DHT22;31567;54.600;9.842;2023-06-22T17:19:15;28.00;69.70
45849;DHT22;31567;54.600;9.842;2023-06-22T17:22:55;27.90;70.00
45849;DHT22;31567;54.600;9.842;2023-06-22T17:26:35;27.90;70.00
45849;DHT22;31567;54.600;9.842;2023-06-22T17:30:15;27.90;69.90
45849;DHT22;31567;54.600;9.842;2023-06-22T17:33:59;27.90;69.30
45849;DHT22;31567;54.600;9.842;2023-06-22T17:37:51;28.00;69.40
45849;DHT22;31567;54.600;9.842;2023-06-22T17:41:34;28.00;70.00
45849;DHT22;31567;54.600;9.842;2023-06-22T17:45:20;28.00;71.10
45849;DHT22;31567;54.600;9.842;2023-06-22T17:49:00;27.90;71.30
45849;DHT22;31567;54.600;9.842;2023-06-22T17:52:40;27.70;71.10
45849;DHT22;31567;54.600;9.842;2023-06-22T17:56:19;27.50;71.90
45849;DHT22;31567;54.600;9.842;2023-06-22T17:59:59;27.30;72.40
45849;DHT22;31567;54.600;9.842;2023-06-22T18:03:38;27.10;71.90
45849;DHT22;31567;54.600;9.842;2023-06-22T18:07:18;26.90;71.70
45849;DHT22;31567;54.600;9.842;2023-06-22T18:10:59;26.80;72.40
45849;DHT22;31567;54.600;9.842;2023-06-22T18:14:41;26.80;72.60
45849;DHT22;31567;54.600;9.842;2023-06-22T18:18:21;26.70;73.00
45849;DHT22;31567;54.600;9.842;2023-06-22T18:22:03;26.70;72.60
45849;DHT22;31567;54.600;9.842;2023-06-22T18:25:43;26.60;72.70
45849;DHT22;31567;54.600;9.842;2023-06-22T18:29:24;26.50;72.50
45849;DHT22;31567;54.600;9.842;2023-06-22T18:33:04;26.50;72.70
45849;DHT22;31567;54.600;9.842;2023-06-22T18:36:50;26.40;73.40
45849;DHT22;31567;54.600;9.842;2023-06-22T18:40:30;26.30;73.60
45849;DHT22;31567;54.600;9.842;2023-06-22T18:44:21;26.20;74.10
45849;DHT22;31567;54.600;9.842;2023-06-22T18:48:04;26.10;74.10
45849;DHT22;31567;54.600;9.842;2023-06-22T18:52:03;26.00;74.40
45849;DHT22;31567;54.600;9.842;2023-06-22T18:55:50;25.80;74.70
45849;DHT22;31567;54.600;9.842;2023-06-22T18:59:50;25.70;74.10
45849;DHT22;31567;54.600;9.842;2023-06-22T19:03:35;25.60;74.70
45849;DHT22;31567;54.600;9.842;2023-06-22T19:07:16;25.50;74.00
45849;DHT22;31567;54.600;9.842;2023-06-22T19:11:11;25.40;73.60
45849;DHT22;31567;54.600;9.842;2023-06-22T19:18:41;25.20;74.10
45849;DHT22;31567;54.600;9.842;2023-06-22T19:22:37;25.10;74.70
45849;DHT22;31567;54.600;9.842;2023-06-22T19:26:22;25.00;74.40
45849;DHT22;31567;54.600;9.842;2023-06-22T19:30:01;24.90;75.20
45849;DHT22;31567;54.600;9.842;2023-06-22T19:33:41;24.90;75.30
45849;DHT22;31567;54.600;9.842;2023-06-22T19:37:22;24.80;75.50
45849;DHT22;31567;54.600;9.842;2023-06-22T19:41:01;24.70;76.20
45849;DHT22;31567;54.600;9.842;2023-06-22T19:44:42;24.60;77.00
45849;DHT22;31567;54.600;9.842;2023-06-22T19:48:26;24.60;77.50
45849;DHT22;31567;54.600;9.842;2023-06-22T19:52:07;24.50;78.30
45849;DHT22;31567;54.600;9.842;2023-06-22T19:55:48;24.40;78.80
45849;DHT22;31567;54.600;9.842;2023-06-22T19:59:28;24.30;79.60
45849;DHT22;31567;54.600;9.842;2023-06-22T20:03:16;24.20;80.10
45849;DHT22;31567;54.600;9.842;2023-06-22T20:07:04;24.00;80.50
45849;DHT22;31567;54.600;9.842;2023-06-22T20:10:44;23.90;81.40
45849;DHT22;31567;54.600;9.842;2023-06-22T20:14:30;23.80;82.10
45849;DHT22;31567;54.600;9.842;2023-06-22T20:18:11;23.70;82.40
45849;DHT22;31567;54.600;9.842;2023-06-22T20:21:51;23.60;82.90
45849;DHT22;31567;54.600;9.842;2023-06-22T20:25:34;23.50;83.10
45849;DHT22;31567;54.600;9.842;2023-06-22T20:29:32;23.40;83.30
45849;DHT22;31567;54.600;9.842;2023-06-22T20:33:16;23.40;83.80
45849;DHT22;31567;54.600;9.842;2023-06-22T20:36:55;23.20;84.30
45849;DHT22;31567;54.600;9.842;2023-06-22T20:40:35;23.10;84.70
45849;DHT22;31567;54.600;9.842;2023-06-22T20:44:15;23.00;85.20
45849;DHT22;31567;54.600;9.842;2023-06-22T20:47:55;23.00;85.80
45849;DHT22;31567;54.600;9.842;2023-06-22T20:51:35;23.00;86.10
45849;DHT22;31567;54.600;9.842;2023-06-22T20:55:15;22.90;86.20
45849;DHT22;31567;54.600;9.842;2023-06-22T20:58:54;22.90;86.50
45849;DHT22;31567;54.600;9.842;2023-06-22T21:02:34;22.80;86.90
45849;DHT22;31567;54.600;9.842;2023-06-22T21:06:13;22.80;87.40
45849;DHT22;31567;54.600;9.842;2023-06-22T21:09:53;22.70;87.90
45849;DHT22;31567;54.600;9.842;2023-06-22T21:13:32;22.70;88.50
45849;DHT22;31567;54.600;9.842;2023-06-22T21:17:14;22.70;88.80
45849;DHT22;31567;54.600;9.842;2023-06-22T21:20:53;22.70;89.70
45849;DHT22;31567;54.600;9.842;2023-06-22T21:24:33;22.60;89.00
45849;DHT22;31567;54.600;9.842;2023-06-22T21:28:13;22.60;88.80
45849;DHT22;31567;54.600;9.842;2023-06-22T21:31:52;22.40;89.10
45849;DHT22;31567;54.600;9.842;2023-06-22T21:35:32;22.30;89.60
45849;DHT22;31567;54.600;9.842;2023-06-22T21:39:11;22.30;89.90
45849;DHT22;31567;54.600;9.842;2023-06-22T21:42:51;22.20;89.50
45849;DHT22;31567;54.600;9.842;2023-06-22T21:46:31;22.20;89.20
45849;DHT22;31567;54.600;9.842;2023-06-22T21:50:10;22.10;89.80
45849;DHT22;31567;54.600;9.842;2023-06-22T21:53:50;22.00;89.40
45849;DHT22;31567;54.600;9.842;2023-06-22T21:57:29;21.90;89.90
45849;DHT22;31567;54.600;9.842;2023-06-22T22:01:09;21.80;90.00
45849;DHT22;31567;54.600;9.842;2023-06-22T22:04:49;21.80;90.20
45849;DHT22;31567;54.600;9.842;2023-06-22T22:08:31;21.80;90.40
45849;DHT22;31567;54.600;9.842;2023-06-22T22:12:11;21.70;90.50
45849;DHT22;31567;54.600;9.842;2023-06-22T22:15:51;21.60;90.70
45849;DHT22;31567;54.600;9.842;2023-06-22T22:19:30;21.60;90.70
45849;DHT22;31567;54.600;9.842;2023-06-22T22:23:10;21.60;90.70
45849;DHT22;31567;54.600;9.842;2023-06-22T22:26:49;21.60;90.60
45849;DHT22;31567;54.600;9.842;2023-06-22T22:30:29;21.60;90.30
45849;DHT22;31567;54.600;9.842;2023-06-22T22:34:09;21.50;90.10
45849;DHT22;31567;54.600;9.842;2023-06-22T22:37:48;21.50;90.00
45849;DHT22;31567;54.600;9.842;2023-06-22T22:41:28;21.50;90.00
45849;DHT22;31567;54.600;9.842;2023-06-22T22:45:08;21.50;89.80
45849;DHT22;31567;54.600;9.842;2023-06-22T22:48:48;21.50;90.00
45849;DHT22;31567;54.600;9.842;2023-06-22T22:52:28;21.50;90.10
45849;DHT22;31567;54.600;9.842;2023-06-22T22:56:09;21.40;90.40
45849;DHT22;31567;54.600;9.842;2023-06-22T22:59:49;21.40;90.70
45849;DHT22;31567;54.600;9.842;2023-06-22T23:03:28;21.40;90.90
45849;DHT22;31567;54.600;9.842;2023-06-22T23:07:09;21.40;91.10
45849;DHT22;31567;54.600;9.842;2023-06-22T23:10:48;21.30;91.30
45849;DHT22;31567;54.600;9.842;2023-06-22T23:14:28;21.30;91.60
45849;DHT22;31567;54.600;9.842;2023-06-22T23:18:08;21.20;91.80